createdAt,value
2023-04-27T00:00:30.337Z,55.06
2023-04-27T00:02:56.770Z,55.36
2023-04-27T00:05:23.357Z,55.31
2023-04-27T00:07:49.712Z,55.18
2023-04-27T00:10:15.977Z,55.09
2023-04-27T00:12:42.258Z,54.85
2023-04-27T00:15:08.532Z,54.43
2023-04-27T00:17:34.819Z,54.43
2023-04-27T00:20:01.113Z,54.13
2023-04-27T00:22:27.379Z,53.51
2023-04-27T00:24:53.609Z,52.96
2023-04-27T00:27:19.895Z,52.89
2023-04-27T00:29:46.181Z,53.30
2023-04-27T00:32:12.541Z,54.05
2023-04-27T00:34:38.888Z,54.14
2023-04-27T00:37:05.157Z,54.37
2023-04-27T00:39:31.444Z,54.31
2023-04-27T00:41:57.691Z,54.07
2023-04-27T00:44:23.921Z,54.25
2023-04-27T00:46:50.153Z,53.79
2023-04-27T00:49:16.409Z,54.49
2023-04-27T00:51:42.706Z,54.47
2023-04-27T00:54:08.936Z,55.23
2023-04-27T00:56:35.181Z,55.61
2023-04-27T00:59:01.456Z,55.88
2023-04-27T01:01:27.774Z,55.84
2023-04-27T01:03:54.294Z,56.56
2023-04-27T01:06:20.751Z,56.56
2023-04-27T01:08:47.013Z,57.32
2023-04-27T01:11:13.278Z,57.81
2023-04-27T01:13:39.570Z,57.39
2023-04-27T01:16:05.817Z,56.81
2023-04-27T01:18:32.084Z,56.23
2023-04-27T01:20:58.324Z,56.65
2023-04-27T01:23:24.589Z,56.23
2023-04-27T01:25:50.849Z,56.55
2023-04-27T01:28:17.115Z,56.30
2023-04-27T01:30:43.393Z,56.15
2023-04-27T01:33:09.712Z,56.01
2023-04-27T01:35:36.057Z,55.72
2023-04-27T01:38:02.313Z,56.24
2023-04-27T01:40:28.599Z,56.43
2023-04-27T01:42:54.871Z,57.33
2023-04-27T01:45:21.167Z,56.61
2023-04-27T01:47:47.450Z,57.01
2023-04-27T01:50:13.712Z,56.73
2023-04-27T01:52:39.975Z,56.80
2023-04-27T01:55:06.281Z,56.82
2023-04-27T01:57:32.564Z,56.78
2023-04-27T01:59:58.841Z,56.55
2023-04-27T02:02:25.258Z,56.95
2023-04-27T02:04:51.745Z,57.56
2023-04-27T02:07:18.192Z,57.80
2023-04-27T02:09:44.544Z,57.62
2023-04-27T02:12:10.809Z,57.90
2023-04-27T02:14:37.085Z,58.86
2023-04-27T02:17:03.350Z,59.44
2023-04-27T02:19:29.620Z,59.56
2023-04-27T02:21:55.884Z,59.40
2023-04-27T02:24:22.134Z,60.11
2023-04-27T02:26:48.378Z,59.48
2023-04-27T02:29:14.833Z,59.22
2023-04-27T02:31:41.633Z,59.81
2023-04-27T02:34:07.925Z,59.37
2023-04-27T02:36:34.180Z,59.09
2023-04-27T02:39:00.448Z,58.85
2023-04-27T02:41:26.727Z,58.60
2023-04-27T02:43:52.989Z,58.25
2023-04-27T02:46:19.290Z,58.61
2023-04-27T02:48:45.585Z,58.79
2023-04-27T02:51:11.863Z,58.73
2023-04-27T02:53:38.133Z,58.62
2023-04-27T02:56:04.494Z,57.90
2023-04-27T02:58:30.769Z,58.21
2023-04-27T03:00:57.116Z,58.45
2023-04-27T03:03:23.600Z,58.90
2023-04-27T03:05:49.967Z,59.09
2023-04-27T03:08:16.249Z,59.04
2023-04-27T03:10:42.505Z,60.37
2023-04-27T03:13:08.781Z,60.30
2023-04-27T03:15:35.032Z,60.42
2023-04-27T03:18:01.317Z,59.63
2023-04-27T03:20:27.605Z,60.10
2023-04-27T03:22:53.867Z,61.10
2023-04-27T03:25:20.111Z,60.05
2023-04-27T03:27:46.398Z,59.35
2023-04-27T03:30:12.645Z,59.85
2023-04-27T03:32:38.947Z,59.78
2023-04-27T03:35:05.272Z,60.07
2023-04-27T03:37:31.526Z,60.41
2023-04-27T03:39:57.797Z,60.37
2023-04-27T03:42:24.059Z,61.01
2023-04-27T03:44:50.319Z,60.44
2023-04-27T03:47:16.569Z,60.95
2023-04-27T03:49:43.002Z,60.60
2023-04-27T03:52:09.266Z,61.24
2023-04-27T03:54:35.517Z,60.52
2023-04-27T03:57:01.773Z,60.88
2023-04-27T03:59:28.038Z,60.83
2023-04-27T04:01:54.341Z,61.11
2023-04-27T04:04:20.840Z,61.52
2023-04-27T04:06:47.179Z,61.57
2023-04-27T04:09:13.656Z,61.80
2023-04-27T04:11:40.094Z,61.31
2023-04-27T04:14:06.343Z,61.83
2023-04-27T04:16:32.582Z,61.04
2023-04-27T04:18:58.839Z,61.42
2023-04-27T04:21:25.113Z,61.12
2023-04-27T04:23:51.379Z,60.86
2023-04-27T04:26:17.633Z,60.69
2023-04-27T04:28:43.900Z,60.29
2023-04-27T04:31:10.182Z,61.01
2023-04-27T04:33:36.490Z,60.25
2023-04-27T04:36:02.745Z,60.57
2023-04-27T04:38:29.024Z,60.05
2023-04-27T04:40:55.328Z,60.65
2023-04-27T04:43:21.600Z,61.01
2023-04-27T04:45:47.897Z,60.80
2023-04-27T04:48:14.162Z,61.28
2023-04-27T04:50:40.408Z,61.43
2023-04-27T04:53:06.658Z,60.89
2023-04-27T04:55:32.968Z,61.56
2023-04-27T04:57:59.242Z,61.98
2023-04-27T05:00:25.513Z,61.81
2023-04-27T05:02:51.958Z,62.27
2023-04-27T05:05:18.330Z,62.20
2023-04-27T05:07:44.571Z,62.08
2023-04-27T05:10:10.856Z,61.30
2023-04-27T05:12:37.096Z,61.60
2023-04-27T05:15:03.340Z,61.18
2023-04-27T05:17:29.642Z,60.85
2023-04-27T05:19:55.898Z,61.35
2023-04-27T05:22:22.165Z,61.47
2023-04-27T05:24:48.412Z,61.79
2023-04-27T05:27:14.742Z,61.38
2023-04-27T05:29:41.021Z,61.12
2023-04-27T05:32:07.397Z,61.69
2023-04-27T05:34:33.685Z,60.92
2023-04-27T05:36:59.944Z,60.72
2023-04-27T05:39:26.231Z,61.45
2023-04-27T05:41:52.484Z,61.66
2023-04-27T05:44:18.736Z,62.01
2023-04-27T05:46:45.021Z,61.64
2023-04-27T05:49:11.417Z,60.61
2023-04-27T05:51:37.804Z,60.97
2023-04-27T05:54:04.054Z,60.77
2023-04-27T05:56:30.321Z,60.11
2023-04-27T05:58:56.567Z,60.92
2023-04-27T06:01:22.859Z,60.29
2023-04-27T06:03:49.241Z,60.03
2023-04-27T06:06:15.584Z,59.43
2023-04-27T06:08:41.852Z,60.06
2023-04-27T06:11:08.113Z,59.06
2023-04-27T06:13:34.393Z,59.73
2023-04-27T06:16:00.753Z,59.84
2023-04-27T06:18:27.051Z,59.20
2023-04-27T06:20:53.338Z,59.27
2023-04-27T06:23:19.602Z,59.02
2023-04-27T06:25:45.887Z,58.77
2023-04-27T06:28:12.161Z,58.40
2023-04-27T06:30:39.632Z,58.02
2023-04-27T06:33:06.142Z,58.80
2023-04-27T06:35:32.459Z,57.76
2023-04-27T06:37:58.882Z,57.89
2023-04-27T06:40:25.256Z,57.79
2023-04-27T06:42:51.544Z,57.25
2023-04-27T06:45:17.800Z,57.21
2023-04-27T06:47:44.272Z,57.30
2023-04-27T06:50:10.539Z,56.69
2023-04-27T06:52:36.814Z,56.97
2023-04-27T06:55:03.100Z,57.69
2023-04-27T06:57:29.339Z,57.03
2023-04-27T06:59:55.606Z,56.66
2023-04-27T07:02:23.720Z,56.17
2023-04-27T07:04:51.273Z,55.79
2023-04-27T07:07:17.564Z,57.18
2023-04-27T07:09:43.805Z,56.34
2023-04-27T07:12:10.070Z,56.62
2023-04-27T07:14:36.371Z,56.93
2023-04-27T07:17:02.648Z,56.00
2023-04-27T07:19:28.944Z,55.67
2023-04-27T07:21:55.214Z,55.48
2023-04-27T07:24:21.500Z,55.81
2023-04-27T07:26:47.760Z,55.28
2023-04-27T07:29:26.594Z,55.06
2023-04-27T07:31:53.785Z,55.32
2023-04-27T07:34:20.057Z,54.08
2023-04-27T07:36:46.339Z,54.13
2023-04-27T07:39:12.773Z,54.34
2023-04-27T07:41:39.307Z,54.72
2023-04-27T07:44:05.587Z,53.87
2023-04-27T07:46:31.850Z,54.31
2023-04-27T07:48:58.107Z,53.46
2023-04-27T07:51:24.360Z,53.57
2023-04-27T07:53:50.650Z,54.29
2023-04-27T07:56:16.971Z,54.21
2023-04-27T07:58:43.278Z,53.45
2023-04-27T08:01:09.557Z,52.74
2023-04-27T08:03:36.077Z,53.44
2023-04-27T08:06:02.583Z,52.49
2023-04-27T08:08:29.150Z,52.99
2023-04-27T08:10:55.418Z,52.96
2023-04-27T08:13:23.178Z,52.51
2023-04-27T08:15:50.009Z,53.14
2023-04-27T08:18:16.321Z,52.87
2023-04-27T08:20:42.617Z,53.33
2023-04-27T08:23:08.924Z,53.13
2023-04-27T08:25:35.182Z,53.12
2023-04-27T08:28:01.465Z,51.96
2023-04-27T08:30:27.729Z,52.40
2023-04-27T08:32:54.044Z,52.67
2023-04-27T08:35:20.332Z,51.34
2023-04-27T08:37:46.595Z,51.07
2023-04-27T08:40:12.893Z,50.70
2023-04-27T08:42:39.139Z,50.52
2023-04-27T08:45:05.404Z,49.76
2023-04-27T08:47:41.762Z,48.14
2023-04-27T08:50:09.890Z,48.91
2023-04-27T08:52:36.155Z,47.97
2023-04-27T08:55:02.404Z,47.70
2023-04-27T08:57:28.691Z,48.06
2023-04-27T08:59:54.934Z,47.80
2023-04-27T09:02:21.311Z,47.20
2023-04-27T09:04:47.751Z,46.59
2023-04-27T09:07:14.086Z,47.37
2023-04-27T09:09:40.350Z,48.33
2023-04-27T09:12:06.634Z,48.01
2023-04-27T09:14:32.898Z,47.95
2023-04-27T09:16:59.167Z,46.52
2023-04-27T09:19:25.446Z,46.71
2023-04-27T09:21:51.738Z,47.22
2023-04-27T09:24:18.036Z,47.27
2023-04-27T09:26:44.462Z,47.31
2023-04-27T09:29:10.822Z,48.06
2023-04-27T09:31:37.118Z,47.21
2023-04-27T09:34:03.406Z,46.78
2023-04-27T09:36:29.676Z,46.22
2023-04-27T09:38:55.964Z,46.50
2023-04-27T09:41:22.258Z,46.15
2023-04-27T09:43:48.513Z,45.11
2023-04-27T09:46:14.845Z,44.83
2023-04-27T09:48:41.148Z,44.82
2023-04-27T09:51:07.432Z,44.57
2023-04-27T09:53:33.708Z,46.09
2023-04-27T09:56:00.667Z,46.22
2023-04-27T09:58:27.009Z,46.42
2023-04-27T10:00:53.381Z,47.04
2023-04-27T10:03:19.755Z,45.31
2023-04-27T10:05:46.085Z,46.46
2023-04-27T10:08:12.407Z,45.41
2023-04-27T10:10:38.662Z,45.80
2023-04-27T10:13:04.920Z,44.66
2023-04-27T10:15:31.183Z,46.78
2023-04-27T10:17:57.477Z,46.05
2023-04-27T10:20:23.887Z,44.41
2023-04-27T10:22:50.265Z,44.25
2023-04-27T10:25:16.574Z,45.36
2023-04-27T10:27:42.871Z,45.37
2023-04-27T10:30:09.151Z,45.41
2023-04-27T10:32:35.535Z,45.88
2023-04-27T10:35:01.879Z,47.15
2023-04-27T10:37:28.162Z,47.08
2023-04-27T10:39:55.022Z,49.11
2023-04-27T10:42:21.350Z,48.42
2023-04-27T10:44:47.603Z,47.76
2023-04-27T10:47:13.870Z,46.79
2023-04-27T10:49:40.192Z,46.30
2023-04-27T10:52:06.460Z,46.41
2023-04-27T10:54:32.747Z,43.53
2023-04-27T10:56:59.041Z,45.54
2023-04-27T10:59:25.293Z,46.09
2023-04-27T11:01:51.693Z,45.19
2023-04-27T11:04:18.090Z,45.36
2023-04-27T11:06:44.422Z,45.84
2023-04-27T11:09:10.693Z,46.23
2023-04-27T11:11:36.950Z,44.69
2023-04-27T11:14:03.237Z,43.70
2023-04-27T11:16:32.044Z,45.01
2023-04-27T11:18:59.764Z,43.46
2023-04-27T11:21:26.104Z,43.02
2023-04-27T11:23:52.355Z,43.18
2023-04-27T11:26:18.622Z,42.43
2023-04-27T11:28:44.880Z,42.66
2023-04-27T11:31:11.213Z,43.33
2023-04-27T11:33:37.514Z,42.74
2023-04-27T11:36:03.753Z,43.18
2023-04-27T11:38:30.038Z,43.66
2023-04-27T11:40:56.312Z,43.01
2023-04-27T11:43:22.572Z,42.88
2023-04-27T11:45:48.813Z,43.96
2023-04-27T11:48:15.129Z,42.59
2023-04-27T11:50:41.450Z,41.83
2023-04-27T11:53:07.715Z,42.47
2023-04-27T11:55:34.007Z,42.03
2023-04-27T11:58:00.271Z,42.64
2023-04-27T12:00:26.551Z,41.18
2023-04-27T12:02:53.035Z,41.52
2023-04-27T12:05:19.638Z,40.60
2023-04-27T12:07:46.043Z,39.89
2023-04-27T12:10:12.313Z,39.94
2023-04-27T12:12:38.593Z,40.45
2023-04-27T12:15:04.929Z,40.28
2023-04-27T12:17:31.262Z,40.81
2023-04-27T12:19:57.556Z,40.29
2023-04-27T12:22:23.913Z,40.61
2023-04-27T12:24:51.827Z,40.10
2023-04-27T12:27:18.068Z,39.77
2023-04-27T12:29:44.360Z,39.37
2023-04-27T12:32:10.650Z,39.70
2023-04-27T12:34:36.947Z,38.27
2023-04-27T12:37:03.209Z,39.92
2023-04-27T12:39:29.492Z,40.13
2023-04-27T12:41:55.759Z,39.07
2023-04-27T12:44:22.037Z,39.37
2023-04-27T12:46:48.599Z,37.39
2023-04-27T12:49:15.014Z,37.81
2023-04-27T12:51:41.286Z,35.97
2023-04-27T12:54:07.547Z,33.66
2023-04-27T12:56:33.797Z,32.71
2023-04-27T12:59:00.054Z,33.95
2023-04-27T13:01:26.481Z,34.90
2023-04-27T13:03:52.986Z,34.52
2023-04-27T13:06:19.417Z,34.43
2023-04-27T13:08:45.686Z,34.04
2023-04-27T13:11:11.946Z,32.29
2023-04-27T13:13:38.229Z,34.38
2023-04-27T13:16:04.585Z,34.01
2023-04-27T13:18:32.789Z,33.96
2023-04-27T13:21:00.533Z,33.34
2023-04-27T13:23:26.811Z,33.81
2023-04-27T13:25:53.055Z,32.28
2023-04-27T13:28:19.326Z,29.55
2023-04-27T13:30:45.594Z,30.49
2023-04-27T13:33:21.796Z,30.67
2023-04-27T13:35:48.642Z,31.51
2023-04-27T13:38:14.925Z,30.09
2023-04-27T13:40:41.190Z,30.01
2023-04-27T13:43:07.487Z,28.86
2023-04-27T13:45:33.749Z,28.42
2023-04-27T13:48:00.072Z,29.26
2023-04-27T13:50:26.428Z,28.49
2023-04-27T13:52:52.720Z,28.90
2023-04-27T13:55:18.985Z,28.64
2023-04-27T13:57:45.244Z,28.99
2023-04-27T14:00:11.692Z,28.03
2023-04-27T14:02:38.101Z,28.75
2023-04-27T14:05:04.466Z,27.68
2023-04-27T14:07:30.729Z,26.82
2023-04-27T14:09:57.014Z,27.14
2023-04-27T14:12:23.285Z,27.50
2023-04-27T14:14:50.590Z,27.41
2023-04-27T14:17:16.856Z,27.44
2023-04-27T14:19:43.139Z,27.46
2023-04-27T14:22:09.412Z,27.43
2023-04-27T14:24:35.680Z,26.74
2023-04-27T14:27:01.938Z,26.88
2023-04-27T14:29:28.203Z,25.79
2023-04-27T14:31:54.489Z,27.42
2023-04-27T14:34:21.664Z,26.56
2023-04-27T14:36:48.080Z,27.09
2023-04-27T14:39:14.570Z,27.30
2023-04-27T14:41:40.979Z,26.90
2023-04-27T14:44:07.236Z,26.84
2023-04-27T14:46:33.659Z,26.93
2023-04-27T14:48:59.975Z,27.63
2023-04-27T14:51:26.236Z,27.99
2023-04-27T14:53:52.507Z,27.21
2023-04-27T14:56:18.768Z,27.41
2023-04-27T14:58:45.032Z,27.80
2023-04-27T15:01:11.376Z,27.38
2023-04-27T15:03:37.762Z,27.00
2023-04-27T15:06:04.205Z,27.40
2023-04-27T15:08:32.732Z,26.34
2023-04-27T15:11:00.325Z,26.78
2023-04-27T15:13:26.634Z,27.98
2023-04-27T15:15:52.910Z,28.03
2023-04-27T15:18:19.260Z,27.23
2023-04-27T15:20:45.617Z,27.21
2023-04-27T15:23:11.881Z,28.79
2023-04-27T15:25:38.130Z,29.70
2023-04-27T15:28:04.385Z,29.41
2023-04-27T15:30:30.668Z,29.89
2023-04-27T15:32:57.007Z,29.93
2023-04-27T15:35:23.373Z,30.17
2023-04-27T15:37:49.634Z,28.37
2023-04-27T15:40:15.907Z,28.27
2023-04-27T15:42:42.184Z,28.80
2023-04-27T15:45:09.931Z,29.90
2023-04-27T15:47:36.487Z,26.53
2023-04-27T15:50:02.751Z,28.88
2023-04-27T15:52:29.067Z,28.56
2023-04-27T15:54:55.393Z,26.98
2023-04-27T15:57:21.696Z,27.06
2023-04-27T15:59:47.957Z,26.23
2023-04-27T16:02:14.288Z,25.41
2023-04-27T16:04:40.584Z,27.18
2023-04-27T16:07:06.865Z,24.75
2023-04-27T16:09:33.166Z,23.70
2023-04-27T16:11:59.462Z,22.68
2023-04-27T16:14:25.708Z,22.98
2023-04-27T16:16:52.081Z,22.24
2023-04-27T16:19:19.060Z,21.43
2023-04-27T16:21:45.324Z,21.24
2023-04-27T16:24:11.595Z,21.04
2023-04-27T16:26:37.878Z,21.76
2023-04-27T16:29:04.130Z,20.38
2023-04-27T16:31:30.479Z,20.23
2023-04-27T16:33:56.812Z,20.74
2023-04-27T16:36:23.056Z,21.33
2023-04-27T16:38:49.336Z,21.13
2023-04-27T16:41:15.604Z,20.66
2023-04-27T16:43:41.866Z,20.26
2023-04-27T16:46:08.163Z,19.92
2023-04-27T16:48:34.492Z,20.04
2023-04-27T16:51:00.756Z,20.11
2023-04-27T16:53:27.035Z,19.68
2023-04-27T16:55:53.283Z,19.70
2023-04-27T16:58:19.554Z,19.62
2023-04-27T17:00:45.822Z,19.07
2023-04-27T17:03:12.216Z,19.55
2023-04-27T17:05:38.573Z,18.78
2023-04-27T17:08:05.507Z,19.29
2023-04-27T17:10:31.994Z,19.50
2023-04-27T17:12:58.271Z,20.14
2023-04-27T17:15:24.551Z,19.97
2023-04-27T17:17:50.857Z,19.51
2023-04-27T17:20:17.140Z,18.56
2023-04-27T17:22:43.410Z,18.99
2023-04-27T17:25:09.683Z,20.09
2023-04-27T17:27:35.962Z,19.97
2023-04-27T17:30:02.332Z,20.33
2023-04-27T17:32:28.626Z,22.15
2023-04-27T17:34:54.904Z,23.01
2023-04-27T17:37:21.167Z,23.13
2023-04-27T17:39:47.494Z,23.67
2023-04-27T17:42:13.767Z,24.47
2023-04-27T17:44:40.072Z,24.70
2023-04-27T17:47:06.338Z,24.97
2023-04-27T17:49:32.591Z,25.17
2023-04-27T17:51:58.866Z,24.90
2023-04-27T17:54:25.168Z,25.61
2023-04-27T17:56:51.460Z,27.27
2023-04-27T17:59:17.782Z,27.26
2023-04-27T18:01:44.266Z,28.03
2023-04-27T18:04:10.670Z,28.38
2023-04-27T18:06:37.089Z,28.58
2023-04-27T18:09:03.385Z,28.91
2023-04-27T18:11:29.661Z,29.42
2023-04-27T18:13:55.940Z,28.98
2023-04-27T18:16:22.325Z,29.30
2023-04-27T18:18:48.725Z,29.04
2023-04-27T18:21:15.011Z,28.89
2023-04-27T18:23:41.317Z,28.57
2023-04-27T18:26:08.872Z,29.33
2023-04-27T18:28:36.021Z,30.23
2023-04-27T18:31:02.322Z,29.35
2023-04-27T18:33:28.616Z,29.44
2023-04-27T18:35:54.972Z,29.43
2023-04-27T18:38:21.244Z,29.20
2023-04-27T18:40:47.522Z,28.98
2023-04-27T18:43:13.886Z,30.43
2023-04-27T18:45:40.174Z,29.98
2023-04-27T18:48:06.542Z,29.75
2023-04-27T18:50:32.876Z,29.62
2023-04-27T18:52:59.135Z,29.92
2023-04-27T18:55:25.360Z,30.31
2023-04-27T18:57:51.631Z,30.28
2023-04-27T19:00:17.898Z,30.77
2023-04-27T19:02:44.252Z,31.59
2023-04-27T19:05:13.422Z,30.72
2023-04-27T19:07:40.132Z,31.05
2023-04-27T19:10:06.453Z,31.16
2023-04-27T19:12:32.730Z,31.14
2023-04-27T19:14:58.995Z,31.69
2023-04-27T19:17:25.530Z,32.02
2023-04-27T19:19:51.924Z,31.89
2023-04-27T19:22:18.402Z,31.21
2023-04-27T19:24:44.720Z,31.17
2023-04-27T19:27:11.000Z,31.82
2023-04-27T19:29:37.374Z,31.87
2023-04-27T19:32:03.652Z,32.33
2023-04-27T19:34:29.898Z,31.91
2023-04-27T19:36:56.181Z,31.97
2023-04-27T19:39:22.436Z,32.56
2023-04-27T19:41:48.718Z,32.35
2023-04-27T19:44:15.186Z,31.91
2023-04-27T19:46:41.655Z,31.76
2023-04-27T19:49:07.959Z,32.39
2023-04-27T19:51:34.230Z,32.64
2023-04-27T19:54:00.499Z,32.91
2023-04-27T19:56:26.789Z,33.92
2023-04-27T19:58:53.070Z,34.00
2023-04-27T20:01:19.354Z,34.42
2023-04-27T20:03:45.860Z,34.37
2023-04-27T20:06:12.549Z,34.77
2023-04-27T20:08:38.935Z,34.72
2023-04-27T20:11:05.184Z,35.29
2023-04-27T20:13:31.457Z,35.54
2023-04-27T20:15:57.776Z,35.88
2023-04-27T20:18:24.026Z,35.13
2023-04-27T20:20:50.302Z,35.85
2023-04-27T20:23:16.543Z,35.40
2023-04-27T20:25:42.828Z,35.68
2023-04-27T20:28:09.121Z,35.30
2023-04-27T20:30:35.398Z,36.06
2023-04-27T20:33:01.735Z,35.87
2023-04-27T20:35:28.031Z,35.58
2023-04-27T20:37:54.294Z,36.12
2023-04-27T20:40:20.544Z,36.65
2023-04-27T20:42:46.809Z,37.07
2023-04-27T20:45:13.170Z,37.42
2023-04-27T20:47:39.649Z,37.16
2023-04-27T20:50:05.977Z,37.43
2023-04-27T20:52:34.390Z,37.78
2023-04-27T20:55:01.062Z,37.86
2023-04-27T20:57:27.321Z,38.13
2023-04-27T20:59:53.585Z,38.69
2023-04-27T21:02:19.904Z,39.43
2023-04-27T21:04:46.279Z,39.12
2023-04-27T21:07:12.602Z,39.19
2023-04-27T21:09:38.878Z,39.11
2023-04-27T21:12:05.145Z,39.41
2023-04-27T21:14:31.414Z,39.64
2023-04-27T21:16:57.771Z,39.69
2023-04-27T21:19:24.099Z,40.27
2023-04-27T21:21:50.365Z,40.41
2023-04-27T21:24:16.621Z,40.68
2023-04-27T21:26:42.890Z,40.89
2023-04-27T21:29:09.176Z,41.18
2023-04-27T21:31:35.547Z,40.98
2023-04-27T21:34:01.919Z,41.55
2023-04-27T21:36:28.180Z,42.11
2023-04-27T21:38:54.467Z,42.09
2023-04-27T21:41:20.741Z,42.15
2023-04-27T21:43:47.036Z,42.26
2023-04-27T21:46:13.388Z,42.44
2023-04-27T21:48:39.719Z,42.78
2023-04-27T21:51:05.983Z,42.84
2023-04-27T21:53:32.278Z,42.45
2023-04-27T21:55:58.557Z,42.53
2023-04-27T21:58:24.817Z,42.77
2023-04-27T22:00:51.081Z,43.20
2023-04-27T22:03:17.550Z,42.81
2023-04-27T22:05:43.951Z,43.26
2023-04-27T22:08:10.189Z,43.22
2023-04-27T22:10:36.444Z,43.06
2023-04-27T22:13:11.466Z,44.14
2023-04-27T22:15:44.444Z,43.91
2023-04-27T22:18:10.742Z,43.92
2023-04-27T22:20:36.993Z,43.96
2023-04-27T22:23:03.323Z,43.37
2023-04-27T22:25:29.627Z,43.77
2023-04-27T22:27:55.889Z,43.82
2023-04-27T22:30:22.153Z,43.65
2023-04-27T22:32:48.475Z,44.54
2023-04-27T22:35:24.798Z,44.51
2023-04-27T22:37:52.447Z,44.50
2023-04-27T22:40:18.787Z,45.33
2023-04-27T22:42:45.038Z,45.00
2023-04-27T22:45:11.295Z,44.51
2023-04-27T22:47:37.572Z,44.65
2023-04-27T22:50:03.894Z,45.12
2023-04-27T22:52:30.234Z,45.26
2023-04-27T22:54:56.510Z,45.50
2023-04-27T22:57:22.758Z,46.10
2023-04-27T22:59:49.252Z,46.30
2023-04-27T23:02:15.572Z,45.53
2023-04-27T23:04:41.922Z,46.31
2023-04-27T23:07:08.237Z,46.53
2023-04-27T23:09:34.534Z,47.07
2023-04-27T23:12:00.789Z,46.34
2023-04-27T23:14:27.060Z,46.36
2023-04-27T23:16:53.398Z,46.89
2023-04-27T23:19:19.700Z,46.33
2023-04-27T23:21:45.956Z,46.42
2023-04-27T23:24:12.235Z,45.79
2023-04-27T23:26:38.528Z,45.51
2023-04-27T23:29:04.783Z,45.73
2023-04-27T23:31:31.200Z,46.33
2023-04-27T23:33:57.564Z,46.52
2023-04-27T23:36:23.831Z,46.48
2023-04-27T23:38:50.101Z,46.13
2023-04-27T23:41:16.390Z,47.43
2023-04-27T23:43:42.659Z,47.33
2023-04-27T23:46:09.043Z,47.24
2023-04-27T23:48:35.343Z,47.15
2023-04-27T23:51:01.624Z,46.91
2023-04-27T23:53:27.872Z,47.17
2023-04-27T23:55:54.134Z,47.49
2023-04-27T23:58:20.404Z,48.18
